»·PEaware :: DAL2053 KLAX-KSEA

DAL2053 :: KLAX-KSEA

FLIGHT INFORMATION

Flight Status: Arrived
Operator:
Delta Air Lines
More flights by this operator :: More flights under this callsign
Pilot: Henderson P. (1210)
Aircraft: BOEING 737-800
(B738)
More flights by this aircraft type
Origin: KLAX Los Angeles Intl
United States
Destination: KSEA Seattle-Tacoma Intl
United States
More flights between these airports :: More routes between these airports
Route: +LADYJ4 CSTRO CZQ LMT J189 BTG HAWKZ7
File this flight plan on PilotEdge
Remarks:
Altitude:
(Current/Filed)
40,000ft
Speed:
(Current/Filed)
452kts
Departed: 20-Sep-18 01:24 PM
Arrived: 20-Sep-18 03:37 PM
Distance/Time
Traveled:
829nm/2:12
Distance/Time
To Go:
Arrived

Flight Plot

Page will automatically refresh every two minutes.

Flight plan parsing failed; only flown route is shown


Map Options




Map Legend


Flown Route
Filed Route
Departure Airport
Arrival Airport
Navaid (VOR, NDB)
Fix

Horizontal Profiles

Position Reports

Time Latitude Longitude Heading Altitude Ground
Speed
20-Sep-18 12:18 33.947170 -118.406673 217 134ft 0kts
20-Sep-18 12:19 33.947170 -118.406673 217 134ft 0kts
20-Sep-18 12:20 33.947170 -118.406673 217 134ft 0kts
20-Sep-18 12:21 33.947170 -118.406673 217 134ft 0kts
20-Sep-18 12:22 33.947170 -118.406673 217 134ft 0kts
20-Sep-18 12:23 33.947170 -118.406673 217 134ft 0kts
20-Sep-18 12:24 33.947170 -118.406673 217 134ft 0kts
20-Sep-18 12:25 33.947170 -118.406673 217 134ft 0kts
20-Sep-18 12:26 33.947170 -118.406673 217 134ft 0kts
20-Sep-18 12:27 33.947170 -118.406673 217 134ft 0kts
20-Sep-18 12:28 33.947170 -118.406673 217 134ft 0kts
20-Sep-18 12:29 33.947170 -118.406673 217 134ft 0kts
20-Sep-18 12:30 33.947170 -118.406673 217 134ft 0kts
20-Sep-18 12:31 33.947170 -118.406673 217 134ft 0kts
20-Sep-18 12:32 33.947170 -118.406673 217 134ft 0kts
20-Sep-18 12:33 33.947170 -118.406673 217 134ft 0kts
20-Sep-18 12:34 33.947170 -118.406673 217 134ft 0kts
20-Sep-18 12:35 33.947170 -118.406673 217 134ft 0kts
20-Sep-18 12:36 33.947170 -118.406673 217 134ft 0kts
20-Sep-18 12:37 33.947170 -118.406673 217 134ft 0kts
20-Sep-18 12:38 33.947170 -118.406673 217 134ft 0kts
20-Sep-18 12:39 33.947170 -118.406673 217 134ft 0kts
20-Sep-18 12:40 33.947170 -118.406673 217 134ft 0kts
20-Sep-18 12:41 33.947170 -118.406673 217 134ft 0kts
20-Sep-18 12:42 33.947170 -118.406673 217 134ft 0kts
20-Sep-18 12:43 33.947170 -118.406673 217 134ft 0kts
20-Sep-18 12:44 33.947170 -118.406673 217 134ft 0kts
20-Sep-18 12:45 33.947170 -118.406673 217 134ft 0kts
20-Sep-18 12:46 33.947170 -118.406673 217 134ft 0kts
20-Sep-18 12:47 33.947170 -118.406673 217 134ft 0kts
20-Sep-18 12:48 33.947170 -118.406673 217 134ft 0kts
20-Sep-18 12:49 33.947170 -118.406673 217 134ft 0kts
20-Sep-18 12:50 33.947170 -118.406673 217 134ft 0kts
20-Sep-18 12:51 33.947170 -118.406673 217 134ft 0kts
20-Sep-18 12:52 33.947170 -118.406673 217 134ft 0kts
20-Sep-18 12:53 33.947170 -118.406673 217 134ft 0kts
20-Sep-18 12:54 33.947170 -118.406673 217 134ft 0kts
20-Sep-18 12:55 33.947170 -118.406673 217 134ft 0kts
20-Sep-18 12:56 33.947170 -118.406673 217 134ft 0kts
20-Sep-18 12:57 33.947170 -118.406673 217 134ft 0kts
20-Sep-18 12:58 33.947170 -118.406673 217 134ft 0kts
20-Sep-18 12:59 33.947170 -118.406673 217 134ft 0kts
20-Sep-18 13:00 33.947170 -118.406673 217 134ft 0kts
20-Sep-18 13:01 33.947170 -118.406673 217 134ft 0kts
20-Sep-18 13:02 33.947170 -118.406673 217 134ft 0kts
20-Sep-18 13:03 33.947170 -118.406673 217 134ft 0kts
20-Sep-18 13:04 33.947170 -118.406673 217 134ft 0kts
20-Sep-18 13:05 33.947170 -118.406673 217 134ft 0kts
20-Sep-18 13:06 33.947170 -118.406673 217 134ft 0kts
20-Sep-18 13:07 33.947170 -118.406673 217 134ft 0kts
20-Sep-18 13:08 33.947182 -118.406661 217 134ft 1kts
20-Sep-18 13:09 33.947690 -118.406601 117 134ft 2kts
20-Sep-18 13:10 33.947718 -118.406913 82 134ft 0kts
20-Sep-18 13:11 33.947718 -118.406913 82 134ft 0kts
20-Sep-18 13:12 33.947718 -118.406913 82 134ft 0kts
20-Sep-18 13:13 33.947718 -118.406913 82 134ft 0kts
20-Sep-18 13:14 33.947718 -118.406913 82 134ft 0kts
20-Sep-18 13:15 33.947718 -118.406913 82 134ft 0kts
20-Sep-18 13:16 33.948163 -118.406108 6 134ft 13kts
20-Sep-18 13:17 33.948949 -118.402944 82 134ft 6kts
20-Sep-18 13:18 33.949226 -118.401911 28 134ft 0kts
20-Sep-18 13:19 33.949227 -118.401910 28 134ft 0kts
20-Sep-18 13:20 33.949229 -118.401909 28 134ft 0kts
20-Sep-18 13:21 33.949230 -118.401908 28 134ft 0kts
20-Sep-18 13:22 33.949232 -118.401907 28 134ft 0kts
20-Sep-18 13:23 33.949233 -118.401906 28 134ft 0kts
20-Sep-18 13:24 33.949235 -118.401905 28 134ft 0kts
20-Sep-18 13:25 33.949985 -118.403712 263 134ft 39kts
20-Sep-18 13:26 33.945948 -118.446991 262 1523ft 165kts
20-Sep-18 13:27 33.942480 -118.519883 266 3322ft 260kts
20-Sep-18 13:28 33.935317 -118.612060 275 6406ft 289kts
20-Sep-18 13:29 33.990490 -118.675769 350 8030ft 295kts
20-Sep-18 13:30 34.073667 -118.672213 5 10794ft 308kts
20-Sep-18 13:31 34.166877 -118.651018 10 12328ft 366kts
20-Sep-18 13:32 34.260476 -118.637083 353 14814ft 377kts
20-Sep-18 13:33 34.365543 -118.660085 347 17514ft 389kts
20-Sep-18 13:34 34.473846 -118.683548 349 19889ft 403kts
20-Sep-18 13:35 34.586857 -118.705393 348 22036ft 417kts
20-Sep-18 13:36 34.702659 -118.730161 341 23965ft 427kts
20-Sep-18 13:37 34.810075 -118.792821 327 25730ft 434kts
20-Sep-18 13:38 34.916393 -118.866503 327 27358ft 444kts
20-Sep-18 13:39 35.025004 -118.941610 327 28801ft 454kts
20-Sep-18 13:40 35.136061 -119.018231 327 30098ft 463kts
20-Sep-18 13:41 35.228741 -119.082328 327 31431ft 461kts
20-Sep-18 13:42 35.339645 -119.159554 327 33016ft 457kts
20-Sep-18 13:43 35.450794 -119.234247 334 34492ft 456kts
20-Sep-18 13:44 35.571518 -119.284375 338 35816ft 457kts
20-Sep-18 13:45 35.692095 -119.332389 338 37024ft 455kts
20-Sep-18 13:46 35.812383 -119.380389 338 38124ft 454kts
20-Sep-18 13:47 35.932404 -119.428340 338 39105ft 452kts
20-Sep-18 13:48 36.051870 -119.476305 338 39912ft 453kts
20-Sep-18 13:49 36.171568 -119.524539 338 39930ft 450kts
20-Sep-18 13:50 36.290623 -119.572676 338 39932ft 450kts
20-Sep-18 13:51 36.409967 -119.621089 338 39930ft 450kts
20-Sep-18 13:52 36.528925 -119.669504 338 39930ft 450kts
20-Sep-18 13:53 36.647949 -119.718001 338 39917ft 450kts
20-Sep-18 13:54 36.766927 -119.766786 338 39921ft 449kts
20-Sep-18 13:55 36.885947 -119.815741 338 39926ft 449kts
20-Sep-18 13:56 37.006696 -119.856931 341 39941ft 450kts
20-Sep-18 13:57 37.127779 -119.897479 341 39946ft 450kts
20-Sep-18 13:58 37.248412 -119.938217 341 39948ft 450kts
20-Sep-18 13:59 37.369374 -119.979169 341 39958ft 449kts
20-Sep-18 14:00 37.489999 -120.020248 341 39972ft 449kts
20-Sep-18 14:01 37.610258 -120.061373 342 39961ft 449kts
20-Sep-18 14:02 37.730973 -120.102804 341 39957ft 448kts
20-Sep-18 14:03 37.851110 -120.144182 341 39966ft 448kts
20-Sep-18 14:04 37.971665 -120.185846 341 39998ft 448kts
20-Sep-18 14:05 38.091957 -120.227561 341 40025ft 448kts
20-Sep-18 14:06 38.212261 -120.269424 341 40049ft 448kts
20-Sep-18 14:07 38.332260 -120.311323 341 40068ft 447kts
20-Sep-18 14:08 38.452324 -120.353390 341 40075ft 446kts
20-Sep-18 14:09 38.571913 -120.395435 341 40073ft 446kts
20-Sep-18 14:10 38.691153 -120.437502 341 40068ft 445kts
20-Sep-18 14:11 38.810655 -120.479807 341 40088ft 444kts
20-Sep-18 14:12 38.929345 -120.521971 341 40109ft 442kts
20-Sep-18 14:13 39.048020 -120.564177 342 40140ft 442kts
20-Sep-18 14:14 39.166161 -120.606479 341 40162ft 441kts
20-Sep-18 14:15 39.284378 -120.648958 341 40168ft 440kts
20-Sep-18 14:16 39.402130 -120.691391 340 40166ft 439kts
20-Sep-18 14:17 39.519757 -120.733920 340 40140ft 439kts
20-Sep-18 14:18 39.637182 -120.776520 340 40116ft 438kts
20-Sep-18 14:19 39.754413 -120.819201 340 40095ft 438kts
20-Sep-18 14:20 39.871979 -120.862155 340 40080ft 438kts
20-Sep-18 14:21 39.989082 -120.905091 340 40084ft 438kts
20-Sep-18 14:22 40.106029 -120.948111 340 40095ft 433kts
20-Sep-18 14:23 40.222182 -120.991012 340 40105ft 434kts
20-Sep-18 14:24 40.338340 -121.034062 339 40101ft 434kts
20-Sep-18 14:25 40.454882 -121.077409 339 40093ft 434kts
20-Sep-18 14:26 40.570660 -121.120625 339 40101ft 433kts
20-Sep-18 14:27 40.686812 -121.164137 339 40117ft 433kts
20-Sep-18 14:28 40.802782 -121.207740 339 40099ft 432kts
20-Sep-18 14:29 40.918059 -121.251237 339 40094ft 432kts
20-Sep-18 14:30 41.033676 -121.295024 339 40096ft 431kts
20-Sep-18 14:31 41.149089 -121.338894 338 40100ft 430kts
20-Sep-18 14:32 41.263778 -121.382649 338 40106ft 429kts
20-Sep-18 14:33 41.378612 -121.426618 338 40136ft 428kts
20-Sep-18 14:34 41.493031 -121.470592 338 40155ft 428kts
20-Sep-18 14:35 41.607208 -121.514634 338 40163ft 428kts
20-Sep-18 14:36 41.721489 -121.558880 338 40167ft 427kts
20-Sep-18 14:37 41.835800 -121.603301 337 40169ft 427kts
20-Sep-18 14:38 41.949982 -121.647720 337 40173ft 427kts
20-Sep-18 14:39 42.063894 -121.692397 337 40178ft 425kts
20-Sep-18 14:40 42.178099 -121.734303 342 40180ft 430kts
20-Sep-18 14:41 42.296642 -121.760761 344 40176ft 431kts
20-Sep-18 14:42 42.414612 -121.787237 344 40173ft 430kts
20-Sep-18 14:43 42.532778 -121.814079 343 40174ft 430kts
20-Sep-18 14:44 42.650569 -121.840979 343 40166ft 429kts
20-Sep-18 14:45 42.768382 -121.868068 343 40155ft 429kts
20-Sep-18 14:46 42.886315 -121.895320 343 40152ft 429kts
20-Sep-18 14:47 43.003387 -121.922490 343 40151ft 427kts
20-Sep-18 14:48 43.120704 -121.949823 343 40151ft 427kts
20-Sep-18 14:49 43.237757 -121.977205 343 40152ft 427kts
20-Sep-18 14:50 43.354699 -122.004668 343 40165ft 427kts
20-Sep-18 14:51 43.471809 -122.032275 343 40171ft 427kts
20-Sep-18 14:52 43.589130 -122.060045 343 40172ft 427kts
20-Sep-18 14:53 43.705980 -122.087812 343 40173ft 426kts
20-Sep-18 14:54 43.822823 -122.115684 343 40175ft 425kts
20-Sep-18 14:55 43.939258 -122.143573 343 40176ft 425kts
20-Sep-18 14:56 44.056259 -122.171709 343 40177ft 425kts
20-Sep-18 14:57 44.172791 -122.199844 343 40182ft 425kts
20-Sep-18 14:58 44.289446 -122.228121 342 40182ft 425kts
20-Sep-18 14:59 44.405863 -122.256457 342 40181ft 425kts
20-Sep-18 15:00 44.522681 -122.285006 342 40183ft 425kts
20-Sep-18 15:01 44.638875 -122.313492 342 40185ft 423kts
20-Sep-18 15:02 44.754869 -122.342015 342 40191ft 423kts
20-Sep-18 15:03 44.870761 -122.370744 342 40185ft 421kts
20-Sep-18 15:04 44.986108 -122.399584 342 40190ft 421kts
20-Sep-18 15:05 45.101636 -122.428918 342 40194ft 421kts
20-Sep-18 15:06 45.197723 -122.452867 342 40195ft 420kts
20-Sep-18 15:07 45.331836 -122.486481 342 40194ft 419kts
20-Sep-18 15:08 45.426769 -122.510364 342 40192ft 418kts
20-Sep-18 15:09 45.541675 -122.539139 342 39775ft 418kts
20-Sep-18 15:10 45.674492 -122.572831 341 38335ft 415kts
20-Sep-18 15:11 45.769097 -122.596749 342 36175ft 414kts
20-Sep-18 15:12 45.883016 -122.624820 343 33332ft 417kts
20-Sep-18 15:13 45.995492 -122.652795 343 31163ft 404kts
20-Sep-18 15:14 46.104396 -122.679783 344 29136ft 392kts
20-Sep-18 15:15 46.211455 -122.700660 345 27169ft 383kts
20-Sep-18 15:16 46.316104 -122.721302 347 25227ft 377kts
20-Sep-18 15:17 46.421568 -122.726708 353 23292ft 377kts
20-Sep-18 15:18 46.525703 -122.729742 353 21373ft 372kts
20-Sep-18 15:19 46.628249 -122.733299 353 19476ft 366kts
20-Sep-18 15:20 46.729542 -122.736956 353 17425ft 363kts
20-Sep-18 15:21 46.824976 -122.696210 28 15891ft 370kts
20-Sep-18 15:22 46.903960 -122.600239 32 14431ft 358kts
20-Sep-18 15:23 46.986142 -122.540351 10 13892ft 304kts
20-Sep-18 15:24 47.065842 -122.506112 10 12503ft 295kts
20-Sep-18 15:25 47.145351 -122.488132 2 11268ft 286kts
20-Sep-18 15:26 47.219271 -122.475354 1 10214ft 272kts
20-Sep-18 15:27 47.294184 -122.464183 4 8731ft 271kts
20-Sep-18 15:28 47.360016 -122.454952 0 7948ft 257kts
20-Sep-18 15:29 47.426887 -122.455312 358 7413ft 230kts
20-Sep-18 15:30 47.490129 -122.455331 359 6318ft 227kts
20-Sep-18 15:31 47.551512 -122.454148 359 5546ft 200kts
20-Sep-18 15:32 47.601426 -122.453175 359 4718ft 171kts
20-Sep-18 15:33 47.618552 -122.400250 94 3468ft 169kts
20-Sep-18 15:34 47.614283 -122.331004 101 2974ft 167kts
20-Sep-18 15:35 47.579991 -122.308732 188 2729ft 161kts
20-Sep-18 15:36 47.537682 -122.310475 180 2008ft 147kts
20-Sep-18 15:37 47.497093 -122.310809 181 1181ft 148kts
20-Sep-18 15:38 47.457308 -122.311053 180 441ft 115kts
20-Sep-18 15:39 47.441711 -122.310864 164 441ft 36kts
20-Sep-18 15:40 47.439909 -122.305028 89 441ft 12kts
20-Sep-18 15:41 47.441655 -122.302171 40 441ft 6kts
20-Sep-18 15:42 47.441905 -122.301841 41 441ft 0kts
20-Sep-18 15:43 47.441905 -122.301841 41 441ft 0kts

Navigation Log

Ident Type
Flight plan parsing failed, navigation log unavailable